Ship Status Report: callsign UBJE5

sailwx.info

Track history (hours):
 
Tides and Currents Weather Stations Pressure Air Temp Water Temp Dewpoint Dewpoint Depression Visibility Wind Speed Wind Dir Waves Ship Positions

Callsign UBJE5 (name unknown)

Last reported at 2018-Mar-21 03:51 UTC. Time now 2018-Apr-25 00:50 UTC.
Position N 44°41' E 037°49'.
Warning: this ship's position is 34 days out of date.

Date/timePositionNaut miles runAvg speedWind from/ knotsBaromVisibWave heightAir tempDewpointWater temp
2018-Mar-21 03:51N 44°41' E 037°49'0 0.0
2018-Mar-21 03:30N 44°41' E 037°49'0 0.0
2018-Mar-21 03:00N 44°41' E 037°49'0 0.0
2018-Mar-21 02:21N 44°41' E 037°49'0 0.0
2018-Mar-21 02:00N 44°41' E 037°49'0 0.0
2018-Mar-21 01:09N 44°41' E 037°49'0 0.0
2018-Mar-21 00:54N 44°41' E 037°49'0 0.0
2018-Mar-21 00:15N 44°41' E 037°49'0 0.0
2018-Mar-20 23:57N 44°41' E 037°49'0 0.0
2018-Mar-20 23:30N 44°41' E 037°49'0 0.2
2018-Mar-20 23:00N 44°41' E 037°49'1 2.5
2018-Mar-20 22:30N 44°42' E 037°49'1 2.3
2018-Mar-20 22:00N 44°43' E 037°51'0 0.0
2018-Mar-20 21:30N 44°43' E 037°51'0 0.0
2018-Mar-20 21:00N 44°43' E 037°51'0 0.0
2018-Mar-20 20:30N 44°43' E 037°51'0 0.0
2018-Mar-20 20:00N 44°43' E 037°51'0 0.0
2018-Mar-20 19:30N 44°43' E 037°51'0 0.0
2018-Mar-20 19:00N 44°43' E 037°51'0 0.0
2018-Mar-20 18:30N 44°43' E 037°51'0 0.0
2018-Mar-20 17:57N 44°43' E 037°51'0 0.0
2018-Mar-20 17:30N 44°43' E 037°51'0 0.0
2018-Mar-20 17:00N 44°43' E 037°51'0 0.0
2018-Mar-20 16:30N 44°43' E 037°51'0 0.0
2018-Mar-20 16:00N 44°43' E 037°51'0 0.0
2018-Mar-20 15:30N 44°43' E 037°51'0 0.0
2018-Mar-20 14:59N 44°43' E 037°51'1 2.4
2018-Mar-20 14:31N 44°42' E 037°49'1 1.0
2018-Mar-20 14:00N 44°42' E 037°49'0 0.0
2018-Mar-20 13:30N 44°42' E 037°49'0 0.0
2018-Mar-20 13:00N 44°42' E 037°49'0 0.1
2018-Mar-20 12:30N 44°42' E 037°49'0 0.0
2018-Mar-20 12:00N 44°42' E 037°49'0 0.0
2018-Mar-20 11:30N 44°42' E 037°49'0 0.0
2018-Mar-20 11:00N 44°42' E 037°49'0 0.0
2018-Mar-20 10:30N 44°42' E 037°49'0 0.0
2018-Mar-20 09:59N 44°42' E 037°49'0 0.0
2018-Mar-20 09:29N 44°42' E 037°49'0 0.1
2018-Mar-20 08:59N 44°42' E 037°49'0 0.0
2018-Mar-20 08:29N 44°42' E 037°49'0 0.1
2018-Mar-20 07:59N 44°42' E 037°49'0 0.0
2018-Mar-20 07:29N 44°42' E 037°49'0 0.0
2018-Mar-20 06:59N 44°42' E 037°49'0 0.0
2018-Mar-20 06:29N 44°42' E 037°49'0 0.0
2018-Mar-20 05:59N 44°42' E 037°49'0 0.0
2018-Mar-20 05:29N 44°42' E 037°49'0 0.0
2018-Mar-20 04:59N 44°42' E 037°49'0 0.0
2018-Mar-20 04:29N 44°42' E 037°49'0 0.0
2018-Mar-20 03:59N 44°42' E 037°49'0 0.0
2018-Mar-20 03:29N 44°42' E 037°49'0 0.0
2018-Mar-20 02:59N 44°42' E 037°49'0 0.0
2018-Mar-20 02:29N 44°42' E 037°49'0 0.0
2018-Mar-20 01:59N 44°42' E 037°49'0 0.0
2018-Mar-20 01:29N 44°42' E 037°49'0 0.2
2018-Mar-20 01:00N 44°41' E 037°49'3 5.8
2018-Mar-20 00:29N 44°39' E 037°51'3 6.8
2018-Mar-19 23:59N 44°36' E 037°54'3 6.3
2018-Mar-19 23:29N 44°33' E 037°56'1 2.0
2018-Mar-19 23:00N 44°33' E 037°57'0 0.1
2018-Mar-19 22:30N 44°33' E 037°57'0 0.0
2018-Mar-19 22:00N 44°33' E 037°57'0 0.1
2018-Mar-19 21:30N 44°33' E 037°57'0 0.0
2018-Mar-19 20:59N 44°33' E 037°57'0 0.0
2018-Mar-19 20:30N 44°33' E 037°57'0 0.0
2018-Mar-19 20:00N 44°33' E 037°57'0 0.1
2018-Mar-19 19:30N 44°33' E 037°57'0 0.0
2018-Mar-19 19:00N 44°33' E 037°57'0 0.0
2018-Mar-19 18:30N 44°33' E 037°57'0 0.1
2018-Mar-19 18:00N 44°33' E 037°57'0 0.0
2018-Mar-19 17:30N 44°33' E 037°57'0 0.1
2018-Mar-19 17:00N 44°33' E 037°57'0 0.1
2018-Mar-19 16:29N 44°33' E 037°57'0 0.2
2018-Mar-19 16:00N 44°33' E 037°57'0 0.1
2018-Mar-19 15:30N 44°33' E 037°57'0 0.6
2018-Mar-19 14:59N 44°33' E 037°57'3 5.7
2018-Mar-19 14:30N 44°36' E 037°55'3 6.6
2018-Mar-19 13:59N 44°38' E 037°52'3 6.6
2018-Mar-19 13:30N 44°41' E 037°50'3 6.3
2018-Mar-19 13:00N 44°44' E 037°48'0 0.5
2018-Mar-19 12:29N 44°44' E 037°48'0 0.0
2018-Mar-19 11:59N 44°44' E 037°48'0 0.0
2018-Mar-19 11:30N 44°44' E 037°48'0 0.0
2018-Mar-19 11:00N 44°44' E 037°48'0 0.0
2018-Mar-19 10:30N 44°44' E 037°48'0 0.0
2018-Mar-19 09:57N 44°44' E 037°48'0 0.0
2018-Mar-19 09:30N 44°44' E 037°48'0 0.0
2018-Mar-19 09:00N 44°44' E 037°48'2 3.0
2018-Mar-19 08:30N 44°43' E 037°49'1 2.2
2018-Mar-19 08:00N 44°42' E 037°49'0 0.0
2018-Mar-19 07:30N 44°42' E 037°49'0 0.0
2018-Mar-19 07:00N 44°42' E 037°49'0 0.0
2018-Mar-19 06:30N 44°42' E 037°49'0 0.0
2018-Mar-19 06:00N 44°42' E 037°49'0 0.0
2018-Mar-19 05:30N 44°42' E 037°49'0 0.0
2018-Mar-19 05:00N 44°42' E 037°49'0 0.0
2018-Mar-19 04:30N 44°42' E 037°49'0 0.0
2018-Mar-19 04:00N 44°42' E 037°49'0 0.0
2018-Mar-19 03:30N 44°42' E 037°49'0 1.0
2018-Mar-19 03:00N 44°42' E 037°49'1 2.5
2018-Mar-19 02:30N 44°43' E 037°51'0 0.0
2018-Mar-19 02:00N 44°43' E 037°51'0 0.0
2018-Mar-19 01:30N 44°43' E 037°51'0 0.0
2018-Mar-19 01:00N 44°43' E 037°51'0 0.0
2018-Mar-19 00:30N 44°43' E 037°51'0 0.0
2018-Mar-19 00:00N 44°43' E 037°51'0 0.0
2018-Mar-18 23:30N 44°43' E 037°51'0 0.0
2018-Mar-18 23:00N 44°43' E 037°51'0 0.0
2018-Mar-18 22:30N 44°43' E 037°51'0 0.6
2018-Mar-18 21:59N 44°43' E 037°50'2 3.2
2018-Mar-18 21:29N 44°42' E 037°48'0 0.0
2018-Mar-18 21:00N 44°42' E 037°48'0 0.0
2018-Mar-18 19:30N 44°42' E 037°48'0 0.0
2018-Mar-18 19:00N 44°42' E 037°49'0 0.0
2018-Mar-18 18:30N 44°42' E 037°48'0 0.0
2018-Mar-18 18:00N 44°42' E 037°48'0 0.0
2018-Mar-18 17:30N 44°42' E 037°49'0 0.0
2018-Mar-18 17:00N 44°42' E 037°49'0 0.0
2018-Mar-18 16:30N 44°42' E 037°49'0 0.0
2018-Mar-18 16:00N 44°42' E 037°49'0 0.0
2018-Mar-18 15:30N 44°42' E 037°48'0 0.0
2018-Mar-18 15:00N 44°42' E 037°49'0 0.0
2018-Mar-18 14:30N 44°42' E 037°49'0 0.0
2018-Mar-18 14:00N 44°42' E 037°49'0 0.0
2018-Mar-18 13:30N 44°42' E 037°49'0 0.0
2018-Mar-18 13:00N 44°42' E 037°48'0 0.0
2018-Mar-18 12:24N 44°42' E 037°49'0 0.0
2018-Mar-18 12:00N 44°42' E 037°49'0 0.0
2018-Mar-18 11:30N 44°42' E 037°49'0 0.0
2018-Mar-18 11:00N 44°42' E 037°49'0 0.0
2018-Mar-18 10:30N 44°42' E 037°49'0 0.0
2018-Mar-18 10:00N 44°42' E 037°49'0 0.0
2018-Mar-18 09:30N 44°42' E 037°49'0 0.0
2018-Mar-18 09:00N 44°42' E 037°49'0 0.0
2018-Mar-18 08:30N 44°42' E 037°49'0 0.0
2018-Mar-18 08:00N 44°42' E 037°49'0 0.0
2018-Mar-18 07:30N 44°42' E 037°49'0 0.0
2018-Mar-18 07:00N 44°42' E 037°49'0 0.0
2018-Mar-18 06:30N 44°42' E 037°49'0 0.0
2018-Mar-18 06:00N 44°42' E 037°49'0 0.0
2018-Mar-18 05:30N 44°42' E 037°48'0 0.0
2018-Mar-18 05:00N 44°42' E 037°49'0 0.0
2018-Mar-18 04:30N 44°42' E 037°49'0 0.0
2018-Mar-18 04:00N 44°42' E 037°49'0 0.0
2018-Mar-18 03:30N 44°42' E 037°49'0 0.0
2018-Mar-18 03:00N 44°42' E 037°49'0 0.0
2018-Mar-18 02:30N 44°42' E 037°49'0 0.0
2018-Mar-18 02:00N 44°42' E 037°49'0 0.0
2018-Mar-18 01:30N 44°42' E 037°49'0 0.0
2018-Mar-18 01:00N 44°42' E 037°49'0 0.0
2018-Mar-18 00:30N 44°42' E 037°49'0 0.0
2018-Mar-18 00:00N 44°42' E 037°49'0 0.0
2018-Mar-17 23:30N 44°42' E 037°49'0 0.0
2018-Mar-17 23:00N 44°42' E 037°49'0 0.0
2018-Mar-17 22:30N 44°42' E 037°49'0 0.0
2018-Mar-17 22:00N 44°42' E 037°49'0 0.0
2018-Mar-17 21:30N 44°42' E 037°49'0 0.0
2018-Mar-17 21:00N 44°42' E 037°49'0 0.0
2018-Mar-17 20:30N 44°42' E 037°49'0 0.0
2018-Mar-17 20:00N 44°42' E 037°49'0 0.0
2018-Mar-17 19:30N 44°42' E 037°49'0 0.0
2018-Mar-17 19:00N 44°42' E 037°49'0 0.0
2018-Mar-17 18:30N 44°42' E 037°49'0 0.0
2018-Mar-17 18:00N 44°42' E 037°49'0 0.0
2018-Mar-17 17:30N 44°42' E 037°49'0 0.0
2018-Mar-17 17:00N 44°42' E 037°49'0 0.0
2018-Mar-17 16:30N 44°42' E 037°49'0 0.0
2018-Mar-17 16:00N 44°42' E 037°49'0 0.0
2018-Mar-17 15:30N 44°42' E 037°49'0 0.0
2018-Mar-17 15:00N 44°42' E 037°48'0 0.0
2018-Mar-17 14:30N 44°42' E 037°49'0 0.0
2018-Mar-17 14:00N 44°42' E 037°49'0 0.0
2018-Mar-17 13:30N 44°42' E 037°49'0 0.0
2018-Mar-17 13:00N 44°42' E 037°49'0 0.0
2018-Mar-17 12:30N 44°42' E 037°49'0 0.0
2018-Mar-17 12:00N 44°42' E 037°49'0 0.0
2018-Mar-17 11:30N 44°42' E 037°49'0 0.0
2018-Mar-17 11:00N 44°42' E 037°49'0 0.0
2018-Mar-17 10:30N 44°42' E 037°49'0 0.0
2018-Mar-17 10:00N 44°42' E 037°49'0 0.0
2018-Mar-17 09:30N 44°42' E 037°49'0 0.0
2018-Mar-17 09:00N 44°42' E 037°49'0 0.0
2018-Mar-17 08:30N 44°42' E 037°49'0 0.0
2018-Mar-17 08:00N 44°42' E 037°49'0 0.0
2018-Mar-17 07:30N 44°42' E 037°49'0 0.0
2018-Mar-17 07:00N 44°42' E 037°49'0 0.0
2018-Mar-17 06:30N 44°42' E 037°49'0 0.0
2018-Mar-17 06:00N 44°42' E 037°49'0 0.0
2018-Mar-17 05:30N 44°42' E 037°49'0 0.0
2018-Mar-17 05:00N 44°42' E 037°49'0 0.8
2018-Mar-17 04:29N 44°42' E 037°49'1 2.9
2018-Mar-17 04:00N 44°43' E 037°51'0 0.0
2018-Mar-17 03:30N 44°43' E 037°51'0 0.0
2018-Mar-17 03:00N 44°43' E 037°51'0 0.0
2018-Mar-17 02:30N 44°43' E 037°51'0 0.0
2018-Mar-17 02:00N 44°43' E 037°51'0 0.0
2018-Mar-17 01:30N 44°43' E 037°51'0 0.0
2018-Mar-17 01:00N 44°43' E 037°51'0 0.0
2018-Mar-17 00:30N 44°43' E 037°51'0 0.0
2018-Mar-17 00:00N 44°43' E 037°51'0 0.0
2018-Mar-16 23:30N 44°43' E 037°51'0 0.0
2018-Mar-16 23:00N 44°43' E 037°51'0 0.0
2018-Mar-16 22:30N 44°43' E 037°51'0 0.0
2018-Mar-16 22:00N 44°43' E 037°51'0 0.0
2018-Mar-16 21:30N 44°43' E 037°51'0 0.0
2018-Mar-16 21:00N 44°43' E 037°51'1 2.7
2018-Mar-16 20:30N 44°42' E 037°49'0 0.9
2018-Mar-16 20:00N 44°42' E 037°48'0 0.0
2018-Mar-16 19:30N 44°42' E 037°48'0 0.0
2018-Mar-16 19:00N 44°42' E 037°48'0 0.0
2018-Mar-16 18:30N 44°42' E 037°48'0 0.0
2018-Mar-16 18:00N 44°42' E 037°48'0 0.0
2018-Mar-16 17:30N 44°42' E 037°48'0 0.0
2018-Mar-16 17:00N 44°42' E 037°48'0 0.0
2018-Mar-16 16:30N 44°42' E 037°48'0 0.0
2018-Mar-16 16:00N 44°42' E 037°48'0 0.1
2018-Mar-16 15:30N 44°42' E 037°48'0 0.1
2018-Mar-16 15:00N 44°42' E 037°48'0 0.3
2018-Mar-16 14:30N 44°42' E 037°48'2 3.7
2018-Mar-16 14:00N 44°43' E 037°48'1 1.4
2018-Mar-16 13:30N 44°44' E 037°47'0 0.0
2018-Mar-16 13:00N 44°44' E 037°47'0 0.0
2018-Mar-16 12:30N 44°44' E 037°47'0 0.0
2018-Mar-16 12:00N 44°44' E 037°47'0 0.0
2018-Mar-16 11:30N 44°44' E 037°47'0 0.0
2018-Mar-16 11:00N 44°44' E 037°47'0 0.0
2018-Mar-16 10:30N 44°44' E 037°47'0 0.0
2018-Mar-16 10:00N 44°44' E 037°47'0 0.0
2018-Mar-16 09:30N 44°44' E 037°47'0 0.0
2018-Mar-16 09:00N 44°44' E 037°47'0 0.0
2018-Mar-16 08:30N 44°44' E 037°47'0 0.0
2018-Mar-16 08:00N 44°44' E 037°47'0 0.0
2018-Mar-16 07:30N 44°44' E 037°47'0 0.0
2018-Mar-16 07:00N 44°44' E 037°47'0 0.0
2018-Mar-16 06:30N 44°44' E 037°47'0 0.0
2018-Mar-16 06:00N 44°44' E 037°47'0 0.0
2018-Mar-16 05:30N 44°44' E 037°47'0 0.0
2018-Mar-16 05:00N 44°44' E 037°47'0 0.0
2018-Mar-16 04:30N 44°44' E 037°47'0 0.0
2018-Mar-16 04:00N 44°44' E 037°47'0 0.0
2018-Mar-16 03:30N 44°44' E 037°47'0 0.0
2018-Mar-16 03:00N 44°44' E 037°47'0 0.0
2018-Mar-16 02:30N 44°44' E 037°47'0 0.0
2018-Mar-16 02:00N 44°44' E 037°47'0 0.0
2018-Mar-16 01:30N 44°44' E 037°47'0 0.5
2018-Mar-16 01:00N 44°43' E 037°47'1 2.0
2018-Mar-16 00:30N 44°44' E 037°48'0 0.0
2018-Mar-16 00:00N 44°44' E 037°48'0 0.0
2018-Mar-15 23:30N 44°44' E 037°48'0 0.0
2018-Mar-15 23:00N 44°44' E 037°48'0 0.0
2018-Mar-15 22:30N 44°44' E 037°48'0 0.0
2018-Mar-15 22:00N 44°44' E 037°48'0 0.0
2018-Mar-15 21:24N 44°44' E 037°48'0 0.0
2018-Mar-15 21:00N 44°44' E 037°48'0 0.0
2018-Mar-15 20:30N 44°44' E 037°48'0 0.0
2018-Mar-15 20:00N 44°44' E 037°48'0 0.0
2018-Mar-15 19:30N 44°44' E 037°48'0 0.0
2018-Mar-15 19:00N 44°44' E 037°48'0 0.0
2018-Mar-15 18:28N 44°44' E 037°48'0 0.0
2018-Mar-15 17:58N 44°44' E 037°48'0 0.0
2018-Mar-15 17:28N 44°44' E 037°48'0 0.0
2018-Mar-15 16:58N 44°44' E 037°48'1 1.5
2018-Mar-15 16:30N 44°43' E 037°49'1 2.7
2018-Mar-15 16:00N 44°43' E 037°51'0 0.0
2018-Mar-15 15:28N 44°43' E 037°51'0 0.0
2018-Mar-15 14:58N 44°43' E 037°51'0 0.0
2018-Mar-15 14:28N 44°43' E 037°51'0 0.0
2018-Mar-15 13:51N 44°43' E 037°51'0 0.0
2018-Mar-15 13:30N 44°43' E 037°51'0 0.0
2018-Mar-15 13:00N 44°43' E 037°51'0 0.0
2018-Mar-15 12:30N 44°43' E 037°51'0 0.0
2018-Mar-15 12:00N 44°43' E 037°51'1 1.9
2018-Mar-15 11:30N 44°42' E 037°50'4 7.7
2018-Mar-15 11:01N 44°39' E 037°51'4 7.8
2018-Mar-15 10:29N 44°36' E 037°56'4 7.3
2018-Mar-15 10:00N 44°33' E 037°59'4 7.2
2018-Mar-15 09:30N 44°30' E 038°02'4 7.1
2018-Mar-15 09:00N 44°28' E 038°05'4 8.1
2018-Mar-15 08:30N 44°25' E 038°09'4 7.2
2018-Mar-15 07:58N 44°23' E 038°14'8 7.1
2018-Mar-15 06:51N 44°19' E 038°23'3 7.0
2018-Mar-15 06:27N 44°17' E 038°27'4 7.0
2018-Mar-15 05:55N 44°16' E 038°31'5 7.0
2018-Mar-15 05:16N 44°14' E 038°37'2 6.8
2018-Mar-15 05:00N 44°13' E 038°39'3 5.6
2018-Mar-15 04:29N 44°11' E 038°43'3 5.6
2018-Mar-15 04:00N 44°10' E 038°46'3 5.6
2018-Mar-15 03:30N 44°09' E 038°49'3 5.6
2018-Mar-15 03:01N 44°07' E 038°53'3 6.0
2018-Mar-15 02:30N 44°06' E 038°57'3 6.2
2018-Mar-15 02:00N 44°05' E 039°00'3 5.1
2018-Mar-15 01:30N 44°05' E 039°04'0 0.8
2018-Mar-15 01:00N 44°05' E 039°04'0 0.0
2018-Mar-15 00:30N 44°05' E 039°04'0 0.0
2018-Mar-15 00:00N 44°05' E 039°04'0 0.0
2018-Mar-14 23:30N 44°05' E 039°04'0 0.0
2018-Mar-14 23:00N 44°05' E 039°04'0 0.0
2018-Mar-14 22:30N 44°05' E 039°04'0 0.0
2018-Mar-14 22:00N 44°05' E 039°04'0 0.0
2018-Mar-14 21:30N 44°05' E 039°04'0 0.0
2018-Mar-14 21:00N 44°05' E 039°04'0 0.0
2018-Mar-14 20:30N 44°05' E 039°04'0 0.0
2018-Mar-14 20:00N 44°05' E 039°04'0 0.0
2018-Mar-14 19:30N 44°05' E 039°04'0 0.0
2018-Mar-14 19:00N 44°05' E 039°04'0 0.0
2018-Mar-14 18:30N 44°05' E 039°04'0 0.0
2018-Mar-14 18:00N 44°05' E 039°04'0 0.0
2018-Mar-14 17:30N 44°05' E 039°04'0 0.0
2018-Mar-14 17:00N 44°05' E 039°04'0 0.0
2018-Mar-14 16:30N 44°05' E 039°04'0 0.0
2018-Mar-14 16:00N 44°05' E 039°04'0 0.0
2018-Mar-14 15:30N 44°06' E 039°04'1 2.2
2018-Mar-14 15:00N 44°04' E 039°03'2 4.3
2018-Mar-14 14:31N 44°05' E 039°00'4 7.4
2018-Mar-14 14:01N 44°07' E 038°56'3 6.2
2018-Mar-14 13:31N 44°08' E 038°52'3 6.3
2018-Mar-14 13:01N 44°09' E 038°48'3 6.2
2018-Mar-14 12:31N 44°11' E 038°44'3 5.9
2018-Mar-14 11:58N 44°12' E 038°40'3 6.3
2018-Mar-14 11:30N 44°14' E 038°37'8 6.5
2018-Mar-14 10:20N 44°17' E 038°27'2 7.0
2018-Mar-14 09:59N 44°18' E 038°24'9 7.5
2018-Mar-14 08:48N 44°22' E 038°13'2 5.8
2018-Mar-14 08:26N 44°23' E 038°10'3 6.9
2018-Mar-14 08:00N 44°24' E 038°07'4 8.9
2018-Mar-14 07:30N 44°27' E 038°01'3 5.7
2018-Mar-14 07:00N 44°28' E 037°58'3 6.6
2018-Mar-14 06:30N 44°30' E 037°54'3 6.9
2018-Mar-14 06:00N 44°31' E 037°49'4 7.0
2018-Mar-14 05:30N 44°33' E 037°45'3 6.2
2018-Mar-14 05:00N 44°34' E 037°41'1 1.2
2018-Mar-14 04:30N 44°35' E 037°41'1 2.9
2018-Mar-14 04:00N 44°36' E 037°42'3 5.6
2018-Mar-14 03:30N 44°37' E 037°45'3 6.2
2018-Mar-14 03:00N 44°39' E 037°49'2 4.8
2018-Mar-14 02:30N 44°41' E 037°49'2 3.3
2018-Mar-14 02:00N 44°43' E 037°51'0 0.0
2018-Mar-14 01:30N 44°43' E 037°51'0 0.0
2018-Mar-14 01:00N 44°43' E 037°51'0 0.0
2018-Mar-14 00:30N 44°43' E 037°51'0 0.0
2018-Mar-14 00:00N 44°43' E 037°51'0 0.0
2018-Mar-13 23:30N 44°43' E 037°51'0 0.0
2018-Mar-13 23:00N 44°43' E 037°51'0 0.0
2018-Mar-13 22:30N 44°43' E 037°51'0 0.0
2018-Mar-13 20:33N 44°43' E 037°51'0 0.0
2018-Mar-13 20:30N 44°43' E 037°51'0 0.0
2018-Mar-13 20:00N 44°43' E 037°51'0 0.0
2018-Mar-13 19:30N 44°43' E 037°51'0 0.0
2018-Mar-13 19:00N 44°43' E 037°51'0 0.0
2018-Mar-13 18:30N 44°43' E 037°51'0 0.0
2018-Mar-13 18:00N 44°43' E 037°51'0 0.0
2018-Mar-13 17:30N 44°43' E 037°51'0 0.7
2018-Mar-13 16:59N 44°43' E 037°50'2 4.9
2018-Mar-13 16:30N 44°44' E 037°47'0 0.0
2018-Mar-13 16:00N 44°44' E 037°47'0 0.0
2018-Mar-13 15:27N 44°44' E 037°47'0 0.0
2018-Mar-13 15:00N 44°44' E 037°47'0 0.0
2018-Mar-13 14:27N 44°44' E 037°47'0 0.0
2018-Mar-13 14:00N 44°44' E 037°47'0 0.0
2018-Mar-13 13:30N 44°44' E 037°47'0 0.0
2018-Mar-13 13:00N 44°44' E 037°47'0 0.0
2018-Mar-13 12:30N 44°44' E 037°47'0 0.0
2018-Mar-13 12:00N 44°44' E 037°47'0 0.0
2018-Mar-13 11:30N 44°44' E 037°47'0 0.5
2018-Mar-13 11:00N 44°44' E 037°48'0 0.0
2018-Mar-13 10:30N 44°44' E 037°48'0 0.0
2018-Mar-13 10:00N 44°44' E 037°48'0 0.0
2018-Mar-13 09:30N 44°44' E 037°48'0 0.0
2018-Mar-13 09:00N 44°44' E 037°48'0 0.0
2018-Mar-13 08:30N 44°44' E 037°48'0 0.0
2018-Mar-13 08:00N 44°44' E 037°48'0 0.0
2018-Mar-13 07:30N 44°44' E 037°48'0 0.0
2018-Mar-13 07:00N 44°44' E 037°48'0 0.0
2018-Mar-13 06:30N 44°44' E 037°48'0 0.0
2018-Mar-13 06:00N 44°44' E 037°48'0 0.0
2018-Mar-13 05:30N 44°44' E 037°48'0 0.0
2018-Mar-13 05:00N 44°44' E 037°48'0 0.0
2018-Mar-13 04:30N 44°44' E 037°48'0 0.0
2018-Mar-13 04:00N 44°44' E 037°48'0 0.0
2018-Mar-13 03:30N 44°44' E 037°48'0 0.0
2018-Mar-13 03:00N 44°44' E 037°48'0 0.0
2018-Mar-13 02:30N 44°44' E 037°48'0 0.0
2018-Mar-13 02:00N 44°44' E 037°48'0 0.0
2018-Mar-13 01:30N 44°44' E 037°48'0 0.0
2018-Mar-13 01:00N 44°44' E 037°48'0 0.0
2018-Mar-13 00:30N 44°44' E 037°48'0 0.0
2018-Mar-12 23:57N 44°44' E 037°48'0 0.0
2018-Mar-12 23:30N 44°44' E 037°48'0 0.0
2018-Mar-12 23:00N 44°44' E 037°48'0 0.0
2018-Mar-12 22:30N 44°44' E 037°48'0 0.0
2018-Mar-12 22:00N 44°44' E 037°48'0 0.0
2018-Mar-12 21:30N 44°44' E 037°48'0 0.0
2018-Mar-12 20:58N 44°44' E 037°48'0 0.0
2018-Mar-12 20:28N 44°44' E 037°48'0 0.0
2018-Mar-12 19:58N 44°44' E 037°48'0 0.0
2018-Mar-12 19:28N 44°44' E 037°48'0 0.0
2018-Mar-12 18:58N 44°44' E 037°48'0 0.0
2018-Mar-12 18:28N 44°44' E 037°48'0 0.0
2018-Mar-12 17:59N 44°44' E 037°48'1 2.1
2018-Mar-12 17:30N 44°43' E 037°48'2 3.6
2018-Mar-12 16:58N 44°41' E 037°49'0 0.0
2018-Mar-12 16:28N 44°41' E 037°49'0 0.0
2018-Mar-12 15:58N 44°41' E 037°49'0 0.0
2018-Mar-12 15:28N 44°41' E 037°49'0 0.0
2018-Mar-12 14:58N 44°41' E 037°49'0 0.0
2018-Mar-12 14:28N 44°41' E 037°49'0 0.0
2018-Mar-12 13:58N 44°41' E 037°49'0 0.0
2018-Mar-12 13:28N 44°41' E 037°49'0 0.0
2018-Mar-12 12:58N 44°41' E 037°49'0 0.0
2018-Mar-12 12:28N 44°41' E 037°49'0 0.0
2018-Mar-12 11:58N 44°41' E 037°49'0 0.0
2018-Mar-12 11:28N 44°41' E 037°49'0 0.0
2018-Mar-12 10:58N 44°41' E 037°49'0 0.0
2018-Mar-12 10:28N 44°41' E 037°49'0 0.0
2018-Mar-12 09:58N 44°41' E 037°49'0 0.0
2018-Mar-12 09:28N 44°41' E 037°49'0 0.9
2018-Mar-12 09:00N 44°41' E 037°49'3 6.1
2018-Mar-12 08:30N 44°38' E 037°52'3 6.7
2018-Mar-12 08:00N 44°36' E 037°55'3 6.8
2018-Mar-12 07:30N 44°34' E 037°58'4 7.0
2018-Mar-12 07:00N 44°31' E 038°01'4 7.0
2018-Mar-12 06:30N 44°28' E 038°05'814.0
2018-Mar-12 05:57N 44°23' E 038°13'0 0.0
2018-Mar-12 05:30N 44°23' E 038°13'2 4.4
2018-Mar-12 04:58N 44°22' E 038°16'3 6.6
2018-Mar-12 04:27N 44°20' E 038°20'3 6.6
2018-Mar-12 04:00N 44°19' E 038°23'12 6.5
2018-Mar-12 02:15N 44°14' E 038°38'2 6.4
2018-Mar-12 01:56N 44°13' E 038°40'3 6.4
2018-Mar-12 01:30N 44°11' E 038°43'3 6.3
2018-Mar-12 01:00N 44°10' E 038°47'3 6.2
2018-Mar-12 00:30N 44°08' E 038°51'3 6.4
2018-Mar-12 00:00N 44°07' E 038°55'3 6.8
2018-Mar-11 23:30N 44°05' E 038°59'2 4.3
2018-Mar-11 23:00N 44°04' E 039°02'0 0.0
2018-Mar-11 22:30N 44°04' E 039°02'0 0.0
2018-Mar-11 22:00N 44°04' E 039°02'0 0.0
2018-Mar-11 21:30N 44°04' E 039°02'0 0.0
2018-Mar-11 21:00N 44°04' E 039°02'0 0.0
2018-Mar-11 20:30N 44°04' E 039°02'0 0.2
2018-Mar-11 20:00N 44°04' E 039°02'2 3.8
2018-Mar-11 19:30N 44°06' E 039°04'0 0.1
2018-Mar-11 18:58N 44°06' E 039°04'0 0.0
2018-Mar-11 18:28N 44°06' E 039°04'0 0.0
2018-Mar-11 17:58N 44°06' E 039°04'0 0.0
2018-Mar-11 17:28N 44°06' E 039°04'0 0.0
2018-Mar-11 16:58N 44°06' E 039°04'0 0.0
2018-Mar-11 16:28N 44°06' E 039°04'0 0.0
2018-Mar-11 15:58N 44°06' E 039°04'0 0.0
2018-Mar-11 15:28N 44°06' E 039°04'0 0.0
2018-Mar-11 14:58N 44°06' E 039°04'0 0.0
2018-Mar-11 14:28N 44°06' E 039°04'0 0.0
2018-Mar-11 13:58N 44°06' E 039°04'0 0.0
2018-Mar-11 13:28N 44°06' E 039°04'0 0.0
2018-Mar-11 12:58N 44°06' E 039°04'0 0.0
2018-Mar-11 12:28N 44°06' E 039°04'0 0.0
2018-Mar-11 11:58N 44°06' E 039°04'0 0.0
2018-Mar-11 11:28N 44°06' E 039°04'0 0.0
2018-Mar-11 10:58N 44°06' E 039°04'0 0.0
2018-Mar-11 10:28N 44°06' E 039°04'0 0.0
2018-Mar-11 09:58N 44°06' E 039°04'0 0.0
2018-Mar-11 09:28N 44°06' E 039°04'0 0.0
2018-Mar-11 08:58N 44°06' E 039°04'0 0.0
2018-Mar-11 08:28N 44°06' E 039°04'0 0.0
2018-Mar-11 07:58N 44°06' E 039°04'0 0.3
2018-Mar-11 07:30N 44°06' E 039°04'1 1.7
2018-Mar-11 06:58N 44°05' E 039°03'0 0.1
2018-Mar-11 06:28N 44°05' E 039°03'0 0.0
2018-Mar-11 05:58N 44°05' E 039°03'0 0.0
2018-Mar-11 05:28N 44°05' E 039°03'0 0.0
2018-Mar-11 04:58N 44°05' E 039°03'0 0.0
2018-Mar-11 04:28N 44°05' E 039°03'0 0.0
2018-Mar-11 03:58N 44°05' E 039°03'  
Track history (hours):
 
Tides and Currents Weather Stations Pressure Air Temp Water Temp Dewpoint Dewpoint Depression Visibility Wind Speed Wind Dir Waves Ship Positions

Callsign UBJE5 (name unknown)

Last reported at 2018-Mar-21 03:51 UTC. Time now 2018-Apr-25 00:50 UTC.
Position N 44°41' E 037°49'.
Warning: this ship's position is 34 days out of date.

Date/timePositionNaut miles runAvg speedWind from/ knotsBaromVisibWave heightAir tempDewpointWater temp
2018-Mar-21 03:51N 44°41' E 037°49'0 0.0
2018-Mar-21 03:30N 44°41' E 037°49'0 0.0
2018-Mar-21 03:00N 44°41' E 037°49'0 0.0
2018-Mar-21 02:21N 44°41' E 037°49'0 0.0
2018-Mar-21 02:00N 44°41' E 037°49'0 0.0
2018-Mar-21 01:09N 44°41' E 037°49'0 0.0
2018-Mar-21 00:54N 44°41' E 037°49'0 0.0
2018-Mar-21 00:15N 44°41' E 037°49'0 0.0
2018-Mar-20 23:57N 44°41' E 037°49'0 0.0
2018-Mar-20 23:30N 44°41' E 037°49'0 0.2
2018-Mar-20 23:00N 44°41' E 037°49'1 2.5
2018-Mar-20 22:30N 44°42' E 037°49'1 2.3
2018-Mar-20 22:00N 44°43' E 037°51'0 0.0
2018-Mar-20 21:30N 44°43' E 037°51'0 0.0
2018-Mar-20 21:00N 44°43' E 037°51'0 0.0
2018-Mar-20 20:30N 44°43' E 037°51'0 0.0
2018-Mar-20 20:00N 44°43' E 037°51'0 0.0
2018-Mar-20 19:30N 44°43' E 037°51'0 0.0
2018-Mar-20 19:00N 44°43' E 037°51'0 0.0
2018-Mar-20 18:30N 44°43' E 037°51'0 0.0
2018-Mar-20 17:57N 44°43' E 037°51'0 0.0
2018-Mar-20 17:30N 44°43' E 037°51'0 0.0
2018-Mar-20 17:00N 44°43' E 037°51'0 0.0
2018-Mar-20 16:30N 44°43' E 037°51'0 0.0
2018-Mar-20 16:00N 44°43' E 037°51'0 0.0
2018-Mar-20 15:30N 44°43' E 037°51'0 0.0
2018-Mar-20 14:59N 44°43' E 037°51'1 2.4
2018-Mar-20 14:31N 44°42' E 037°49'1 1.0
2018-Mar-20 14:00N 44°42' E 037°49'0 0.0
2018-Mar-20 13:30N 44°42' E 037°49'0 0.0
2018-Mar-20 13:00N 44°42' E 037°49'0 0.1
2018-Mar-20 12:30N 44°42' E 037°49'0 0.0
2018-Mar-20 12:00N 44°42' E 037°49'0 0.0
2018-Mar-20 11:30N 44°42' E 037°49'0 0.0
2018-Mar-20 11:00N 44°42' E 037°49'0 0.0
2018-Mar-20 10:30N 44°42' E 037°49'0 0.0
2018-Mar-20 09:59N 44°42' E 037°49'0 0.0
2018-Mar-20 09:29N 44°42' E 037°49'0 0.1
2018-Mar-20 08:59N 44°42' E 037°49'0 0.0
2018-Mar-20 08:29N 44°42' E 037°49'0 0.1
2018-Mar-20 07:59N 44°42' E 037°49'0 0.0
2018-Mar-20 07:29N 44°42' E 037°49'0 0.0
2018-Mar-20 06:59N 44°42' E 037°49'0 0.0
2018-Mar-20 06:29N 44°42' E 037°49'0 0.0
2018-Mar-20 05:59N 44°42' E 037°49'0 0.0
2018-Mar-20 05:29N 44°42' E 037°49'0 0.0
2018-Mar-20 04:59N 44°42' E 037°49'0 0.0
2018-Mar-20 04:29N 44°42' E 037°49'0 0.0
2018-Mar-20 03:59N 44°42' E 037°49'0 0.0
2018-Mar-20 03:29N 44°42' E 037°49'0 0.0
2018-Mar-20 02:59N 44°42' E 037°49'0 0.0
2018-Mar-20 02:29N 44°42' E 037°49'0 0.0
2018-Mar-20 01:59N 44°42' E 037°49'0 0.0
2018-Mar-20 01:29N 44°42' E 037°49'0 0.2
2018-Mar-20 01:00N 44°41' E 037°49'3 5.8
2018-Mar-20 00:29N 44°39' E 037°51'3 6.8
2018-Mar-19 23:59N 44°36' E 037°54'3 6.3
2018-Mar-19 23:29N 44°33' E 037°56'1 2.0
2018-Mar-19 23:00N 44°33' E 037°57'0 0.1
2018-Mar-19 22:30N 44°33' E 037°57'0 0.0
2018-Mar-19 22:00N 44°33' E 037°57'0 0.1
2018-Mar-19 21:30N 44°33' E 037°57'0 0.0
2018-Mar-19 20:59N 44°33' E 037°57'0 0.0
2018-Mar-19 20:30N 44°33' E 037°57'0 0.0
2018-Mar-19 20:00N 44°33' E 037°57'0 0.1
2018-Mar-19 19:30N 44°33' E 037°57'0 0.0
2018-Mar-19 19:00N 44°33' E 037°57'0 0.0
2018-Mar-19 18:30N 44°33' E 037°57'0 0.1
2018-Mar-19 18:00N 44°33' E 037°57'0 0.0
2018-Mar-19 17:30N 44°33' E 037°57'0 0.1
2018-Mar-19 17:00N 44°33' E 037°57'0 0.1
2018-Mar-19 16:29N 44°33' E 037°57'0 0.2
2018-Mar-19 16:00N 44°33' E 037°57'0 0.1
2018-Mar-19 15:30N 44°33' E 037°57'0 0.6
2018-Mar-19 14:59N 44°33' E 037°57'3 5.7
2018-Mar-19 14:30N 44°36' E 037°55'3 6.6
2018-Mar-19 13:59N 44°38' E 037°52'3 6.6
2018-Mar-19 13:30N 44°41' E 037°50'3 6.3
2018-Mar-19 13:00N 44°44' E 037°48'0 0.5
2018-Mar-19 12:29N 44°44' E 037°48'0 0.0
2018-Mar-19 11:59N 44°44' E 037°48'0 0.0
2018-Mar-19 11:30N 44°44' E 037°48'0 0.0
2018-Mar-19 11:00N 44°44' E 037°48'0 0.0
2018-Mar-19 10:30N 44°44' E 037°48'0 0.0
2018-Mar-19 09:57N 44°44' E 037°48'0 0.0
2018-Mar-19 09:30N 44°44' E 037°48'0 0.0
2018-Mar-19 09:00N 44°44' E 037°48'2 3.0
2018-Mar-19 08:30N 44°43' E 037°49'1 2.2
2018-Mar-19 08:00N 44°42' E 037°49'0 0.0
2018-Mar-19 07:30N 44°42' E 037°49'0 0.0
2018-Mar-19 07:00N 44°42' E 037°49'0 0.0
2018-Mar-19 06:30N 44°42' E 037°49'0 0.0
2018-Mar-19 06:00N 44°42' E 037°49'0 0.0
2018-Mar-19 05:30N 44°42' E 037°49'0 0.0
2018-Mar-19 05:00N 44°42' E 037°49'0 0.0
2018-Mar-19 04:30N 44°42' E 037°49'0 0.0
2018-Mar-19 04:00N 44°42' E 037°49'0 0.0
2018-Mar-19 03:30N 44°42' E 037°49'0 1.0
2018-Mar-19 03:00N 44°42' E 037°49'1 2.5
2018-Mar-19 02:30N 44°43' E 037°51'0 0.0
2018-Mar-19 02:00N 44°43' E 037°51'0 0.0
2018-Mar-19 01:30N 44°43' E 037°51'0 0.0
2018-Mar-19 01:00N 44°43' E 037°51'0 0.0
2018-Mar-19 00:30N 44°43' E 037°51'0 0.0
2018-Mar-19 00:00N 44°43' E 037°51'0 0.0
2018-Mar-18 23:30N 44°43' E 037°51'0 0.0
2018-Mar-18 23:00N 44°43' E 037°51'0 0.0
2018-Mar-18 22:30N 44°43' E 037°51'0 0.6
2018-Mar-18 21:59N 44°43' E 037°50'2 3.2
2018-Mar-18 21:29N 44°42' E 037°48'0 0.0
2018-Mar-18 21:00N 44°42' E 037°48'0 0.0
2018-Mar-18 19:30N 44°42' E 037°48'0 0.0
2018-Mar-18 19:00N 44°42' E 037°49'0 0.0
2018-Mar-18 18:30N 44°42' E 037°48'0 0.0
2018-Mar-18 18:00N 44°42' E 037°48'0 0.0
2018-Mar-18 17:30N 44°42' E 037°49'0 0.0
2018-Mar-18 17:00N 44°42' E 037°49'0 0.0
2018-Mar-18 16:30N 44°42' E 037°49'0 0.0
2018-Mar-18 16:00N 44°42' E 037°49'0 0.0
2018-Mar-18 15:30N 44°42' E 037°48'0 0.0
2018-Mar-18 15:00N 44°42' E 037°49'0 0.0
2018-Mar-18 14:30N 44°42' E 037°49'0 0.0
2018-Mar-18 14:00N 44°42' E 037°49'0 0.0
2018-Mar-18 13:30N 44°42' E 037°49'0 0.0
2018-Mar-18 13:00N 44°42' E 037°48'0 0.0
2018-Mar-18 12:24N 44°42' E 037°49'0 0.0
2018-Mar-18 12:00N 44°42' E 037°49'0 0.0
2018-Mar-18 11:30N 44°42' E 037°49'0 0.0
2018-Mar-18 11:00N 44°42' E 037°49'0 0.0
2018-Mar-18 10:30N 44°42' E 037°49'0 0.0
2018-Mar-18 10:00N 44°42' E 037°49'0 0.0
2018-Mar-18 09:30N 44°42' E 037°49'0 0.0
2018-Mar-18 09:00N 44°42' E 037°49'0 0.0
2018-Mar-18 08:30N 44°42' E 037°49'0 0.0
2018-Mar-18 08:00N 44°42' E 037°49'0 0.0
2018-Mar-18 07:30N 44°42' E 037°49'0 0.0
2018-Mar-18 07:00N 44°42' E 037°49'0 0.0
2018-Mar-18 06:30N 44°42' E 037°49'0 0.0
2018-Mar-18 06:00N 44°42' E 037°49'0 0.0
2018-Mar-18 05:30N 44°42' E 037°48'0 0.0
2018-Mar-18 05:00N 44°42' E 037°49'0 0.0
2018-Mar-18 04:30N 44°42' E 037°49'0 0.0
2018-Mar-18 04:00N 44°42' E 037°49'0 0.0
2018-Mar-18 03:30N 44°42' E 037°49'0 0.0
2018-Mar-18 03:00N 44°42' E 037°49'0 0.0
2018-Mar-18 02:30N 44°42' E 037°49'0 0.0
2018-Mar-18 02:00N 44°42' E 037°49'0 0.0
2018-Mar-18 01:30N 44°42' E 037°49'0 0.0
2018-Mar-18 01:00N 44°42' E 037°49'0 0.0
2018-Mar-18 00:30N 44°42' E 037°49'0 0.0
2018-Mar-18 00:00N 44°42' E 037°49'0 0.0
2018-Mar-17 23:30N 44°42' E 037°49'0 0.0
2018-Mar-17 23:00N 44°42' E 037°49'0 0.0
2018-Mar-17 22:30N 44°42' E 037°49'0 0.0
2018-Mar-17 22:00N 44°42' E 037°49'0 0.0
2018-Mar-17 21:30N 44°42' E 037°49'0 0.0
2018-Mar-17 21:00N 44°42' E 037°49'0 0.0
2018-Mar-17 20:30N 44°42' E 037°49'0 0.0
2018-Mar-17 20:00N 44°42' E 037°49'0 0.0
2018-Mar-17 19:30N 44°42' E 037°49'0 0.0
2018-Mar-17 19:00N 44°42' E 037°49'0 0.0
2018-Mar-17 18:30N 44°42' E 037°49'0 0.0
2018-Mar-17 18:00N 44°42' E 037°49'0 0.0
2018-Mar-17 17:30N 44°42' E 037°49'0 0.0
2018-Mar-17 17:00N 44°42' E 037°49'0 0.0
2018-Mar-17 16:30N 44°42' E 037°49'0 0.0
2018-Mar-17 16:00N 44°42' E 037°49'0 0.0
2018-Mar-17 15:30N 44°42' E 037°49'0 0.0
2018-Mar-17 15:00N 44°42' E 037°48'0 0.0
2018-Mar-17 14:30N 44°42' E 037°49'0 0.0
2018-Mar-17 14:00N 44°42' E 037°49'0 0.0
2018-Mar-17 13:30N 44°42' E 037°49'0 0.0
2018-Mar-17 13:00N 44°42' E 037°49'0 0.0
2018-Mar-17 12:30N 44°42' E 037°49'0 0.0
2018-Mar-17 12:00N 44°42' E 037°49'0 0.0
2018-Mar-17 11:30N 44°42' E 037°49'0 0.0
2018-Mar-17 11:00N 44°42' E 037°49'0 0.0
2018-Mar-17 10:30N 44°42' E 037°49'0 0.0
2018-Mar-17 10:00N 44°42' E 037°49'0 0.0
2018-Mar-17 09:30N 44°42' E 037°49'0 0.0
2018-Mar-17 09:00N 44°42' E 037°49'0 0.0
2018-Mar-17 08:30N 44°42' E 037°49'0 0.0
2018-Mar-17 08:00N 44°42' E 037°49'0 0.0
2018-Mar-17 07:30N 44°42' E 037°49'0 0.0
2018-Mar-17 07:00N 44°42' E 037°49'0 0.0
2018-Mar-17 06:30N 44°42' E 037°49'0 0.0
2018-Mar-17 06:00N 44°42' E 037°49'0 0.0
2018-Mar-17 05:30N 44°42' E 037°49'0 0.0
2018-Mar-17 05:00N 44°42' E 037°49'0 0.8
2018-Mar-17 04:29N 44°42' E 037°49'1 2.9
2018-Mar-17 04:00N 44°43' E 037°51'0 0.0
2018-Mar-17 03:30N 44°43' E 037°51'0 0.0
2018-Mar-17 03:00N 44°43' E 037°51'0 0.0
2018-Mar-17 02:30N 44°43' E 037°51'0 0.0
2018-Mar-17 02:00N 44°43' E 037°51'0 0.0
2018-Mar-17 01:30N 44°43' E 037°51'0 0.0
2018-Mar-17 01:00N 44°43' E 037°51'0 0.0
2018-Mar-17 00:30N 44°43' E 037°51'0 0.0
2018-Mar-17 00:00N 44°43' E 037°51'0 0.0
2018-Mar-16 23:30N 44°43' E 037°51'0 0.0
2018-Mar-16 23:00N 44°43' E 037°51'0 0.0
2018-Mar-16 22:30N 44°43' E 037°51'0 0.0
2018-Mar-16 22:00N 44°43' E 037°51'0 0.0
2018-Mar-16 21:30N 44°43' E 037°51'0 0.0
2018-Mar-16 21:00N 44°43' E 037°51'1 2.7
2018-Mar-16 20:30N 44°42' E 037°49'0 0.9
2018-Mar-16 20:00N 44°42' E 037°48'0 0.0
2018-Mar-16 19:30N 44°42' E 037°48'0 0.0
2018-Mar-16 19:00N 44°42' E 037°48'0 0.0
2018-Mar-16 18:30N 44°42' E 037°48'0 0.0
2018-Mar-16 18:00N 44°42' E 037°48'0 0.0
2018-Mar-16 17:30N 44°42' E 037°48'0 0.0
2018-Mar-16 17:00N 44°42' E 037°48'0 0.0
2018-Mar-16 16:30N 44°42' E 037°48'0 0.0
2018-Mar-16 16:00N 44°42' E 037°48'0 0.1
2018-Mar-16 15:30N 44°42' E 037°48'0 0.1
2018-Mar-16 15:00N 44°42' E 037°48'0 0.3
2018-Mar-16 14:30N 44°42' E 037°48'2 3.7
2018-Mar-16 14:00N 44°43' E 037°48'1 1.4
2018-Mar-16 13:30N 44°44' E 037°47'0 0.0
2018-Mar-16 13:00N 44°44' E 037°47'0 0.0
2018-Mar-16 12:30N 44°44' E 037°47'0 0.0
2018-Mar-16 12:00N 44°44' E 037°47'0 0.0
2018-Mar-16 11:30N 44°44' E 037°47'0 0.0
2018-Mar-16 11:00N 44°44' E 037°47'0 0.0
2018-Mar-16 10:30N 44°44' E 037°47'0 0.0
2018-Mar-16 10:00N 44°44' E 037°47'0 0.0
2018-Mar-16 09:30N 44°44' E 037°47'0 0.0
2018-Mar-16 09:00N 44°44' E 037°47'0 0.0
2018-Mar-16 08:30N 44°44' E 037°47'0 0.0
2018-Mar-16 08:00N 44°44' E 037°47'0 0.0
2018-Mar-16 07:30N 44°44' E 037°47'0 0.0
2018-Mar-16 07:00N 44°44' E 037°47'0 0.0
2018-Mar-16 06:30N 44°44' E 037°47'0 0.0
2018-Mar-16 06:00N 44°44' E 037°47'0 0.0
2018-Mar-16 05:30N 44°44' E 037°47'0 0.0
2018-Mar-16 05:00N 44°44' E 037°47'0 0.0
2018-Mar-16 04:30N 44°44' E 037°47'0 0.0
2018-Mar-16 04:00N 44°44' E 037°47'0 0.0
2018-Mar-16 03:30N 44°44' E 037°47'0 0.0
2018-Mar-16 03:00N 44°44' E 037°47'0 0.0
2018-Mar-16 02:30N 44°44' E 037°47'0 0.0
2018-Mar-16 02:00N 44°44' E 037°47'0 0.0
2018-Mar-16 01:30N 44°44' E 037°47'0 0.5
2018-Mar-16 01:00N 44°43' E 037°47'1 2.0
2018-Mar-16 00:30N 44°44' E 037°48'0 0.0
2018-Mar-16 00:00N 44°44' E 037°48'0 0.0
2018-Mar-15 23:30N 44°44' E 037°48'0 0.0
2018-Mar-15 23:00N 44°44' E 037°48'0 0.0
2018-Mar-15 22:30N 44°44' E 037°48'0 0.0
2018-Mar-15 22:00N 44°44' E 037°48'0 0.0
2018-Mar-15 21:24N 44°44' E 037°48'0 0.0
2018-Mar-15 21:00N 44°44' E 037°48'0 0.0
2018-Mar-15 20:30N 44°44' E 037°48'0 0.0
2018-Mar-15 20:00N 44°44' E 037°48'0 0.0
2018-Mar-15 19:30N 44°44' E 037°48'0 0.0
2018-Mar-15 19:00N 44°44' E 037°48'0 0.0
2018-Mar-15 18:28N 44°44' E 037°48'0 0.0
2018-Mar-15 17:58N 44°44' E 037°48'0 0.0
2018-Mar-15 17:28N 44°44' E 037°48'0 0.0
2018-Mar-15 16:58N 44°44' E 037°48'1 1.5
2018-Mar-15 16:30N 44°43' E 037°49'1 2.7
2018-Mar-15 16:00N 44°43' E 037°51'0 0.0
2018-Mar-15 15:28N 44°43' E 037°51'0 0.0
2018-Mar-15 14:58N 44°43' E 037°51'0 0.0
2018-Mar-15 14:28N 44°43' E 037°51'0 0.0
2018-Mar-15 13:51N 44°43' E 037°51'0 0.0
2018-Mar-15 13:30N 44°43' E 037°51'0 0.0
2018-Mar-15 13:00N 44°43' E 037°51'0 0.0
2018-Mar-15 12:30N 44°43' E 037°51'0 0.0
2018-Mar-15 12:00N 44°43' E 037°51'1 1.9
2018-Mar-15 11:30N 44°42' E 037°50'4 7.7
2018-Mar-15 11:01N 44°39' E 037°51'4 7.8
2018-Mar-15 10:29N 44°36' E 037°56'4 7.3
2018-Mar-15 10:00N 44°33' E 037°59'4 7.2
2018-Mar-15 09:30N 44°30' E 038°02'4 7.1
2018-Mar-15 09:00N 44°28' E 038°05'4 8.1
2018-Mar-15 08:30N 44°25' E 038°09'4 7.2
2018-Mar-15 07:58N 44°23' E 038°14'8 7.1
2018-Mar-15 06:51N 44°19' E 038°23'3 7.0
2018-Mar-15 06:27N 44°17' E 038°27'4 7.0
2018-Mar-15 05:55N 44°16' E 038°31'5 7.0
2018-Mar-15 05:16N 44°14' E 038°37'2 6.8
2018-Mar-15 05:00N 44°13' E 038°39'3 5.6
2018-Mar-15 04:29N 44°11' E 038°43'3 5.6
2018-Mar-15 04:00N 44°10' E 038°46'3 5.6
2018-Mar-15 03:30N 44°09' E 038°49'3 5.6
2018-Mar-15 03:01N 44°07' E 038°53'3 6.0
2018-Mar-15 02:30N 44°06' E 038°57'3 6.2
2018-Mar-15 02:00N 44°05' E 039°00'3 5.1
2018-Mar-15 01:30N 44°05' E 039°04'0 0.8
2018-Mar-15 01:00N 44°05' E 039°04'0 0.0
2018-Mar-15 00:30N 44°05' E 039°04'0 0.0
2018-Mar-15 00:00N 44°05' E 039°04'0 0.0
2018-Mar-14 23:30N 44°05' E 039°04'0 0.0
2018-Mar-14 23:00N 44°05' E 039°04'0 0.0
2018-Mar-14 22:30N 44°05' E 039°04'0 0.0
2018-Mar-14 22:00N 44°05' E 039°04'0 0.0
2018-Mar-14 21:30N 44°05' E 039°04'0 0.0
2018-Mar-14 21:00N 44°05' E 039°04'0 0.0
2018-Mar-14 20:30N 44°05' E 039°04'0 0.0
2018-Mar-14 20:00N 44°05' E 039°04'0 0.0
2018-Mar-14 19:30N 44°05' E 039°04'0 0.0
2018-Mar-14 19:00N 44°05' E 039°04'0 0.0
2018-Mar-14 18:30N 44°05' E 039°04'0 0.0
2018-Mar-14 18:00N 44°05' E 039°04'0 0.0
2018-Mar-14 17:30N 44°05' E 039°04'0 0.0
2018-Mar-14 17:00N 44°05' E 039°04'0 0.0
2018-Mar-14 16:30N 44°05' E 039°04'0 0.0
2018-Mar-14 16:00N 44°05' E 039°04'0 0.0
2018-Mar-14 15:30N 44°06' E 039°04'1 2.2
2018-Mar-14 15:00N 44°04' E 039°03'2 4.3
2018-Mar-14 14:31N 44°05' E 039°00'4 7.4
2018-Mar-14 14:01N 44°07' E 038°56'3 6.2
2018-Mar-14 13:31N 44°08' E 038°52'3 6.3
2018-Mar-14 13:01N 44°09' E 038°48'3 6.2
2018-Mar-14 12:31N 44°11' E 038°44'3 5.9
2018-Mar-14 11:58N 44°12' E 038°40'3 6.3
2018-Mar-14 11:30N 44°14' E 038°37'8 6.5
2018-Mar-14 10:20N 44°17' E 038°27'2 7.0
2018-Mar-14 09:59N 44°18' E 038°24'9 7.5
2018-Mar-14 08:48N 44°22' E 038°13'2 5.8
2018-Mar-14 08:26N 44°23' E 038°10'3 6.9
2018-Mar-14 08:00N 44°24' E 038°07'4 8.9
2018-Mar-14 07:30N 44°27' E 038°01'3 5.7
2018-Mar-14 07:00N 44°28' E 037°58'3 6.6
2018-Mar-14 06:30N 44°30' E 037°54'3 6.9
2018-Mar-14 06:00N 44°31' E 037°49'4 7.0
2018-Mar-14 05:30N 44°33' E 037°45'3 6.2
2018-Mar-14 05:00N 44°34' E 037°41'1 1.2
2018-Mar-14 04:30N 44°35' E 037°41'1 2.9
2018-Mar-14 04:00N 44°36' E 037°42'3 5.6
2018-Mar-14 03:30N 44°37' E 037°45'3 6.2
2018-Mar-14 03:00N 44°39' E 037°49'2 4.8
2018-Mar-14 02:30N 44°41' E 037°49'2 3.3
2018-Mar-14 02:00N 44°43' E 037°51'0 0.0
2018-Mar-14 01:30N 44°43' E 037°51'0 0.0
2018-Mar-14 01:00N 44°43' E 037°51'0 0.0
2018-Mar-14 00:30N 44°43' E 037°51'0 0.0
2018-Mar-14 00:00N 44°43' E 037°51'0 0.0
2018-Mar-13 23:30N 44°43' E 037°51'0 0.0
2018-Mar-13 23:00N 44°43' E 037°51'0 0.0
2018-Mar-13 22:30N 44°43' E 037°51'0 0.0
2018-Mar-13 20:33N 44°43' E 037°51'0 0.0
2018-Mar-13 20:30N 44°43' E 037°51'0 0.0
2018-Mar-13 20:00N 44°43' E 037°51'0 0.0
2018-Mar-13 19:30N 44°43' E 037°51'0 0.0
2018-Mar-13 19:00N 44°43' E 037°51'0 0.0
2018-Mar-13 18:30N 44°43' E 037°51'0 0.0
2018-Mar-13 18:00N 44°43' E 037°51'0 0.0
2018-Mar-13 17:30N 44°43' E 037°51'0 0.7
2018-Mar-13 16:59N 44°43' E 037°50'2 4.9
2018-Mar-13 16:30N 44°44' E 037°47'0 0.0
2018-Mar-13 16:00N 44°44' E 037°47'0 0.0
2018-Mar-13 15:27N 44°44' E 037°47'0 0.0
2018-Mar-13 15:00N 44°44' E 037°47'0 0.0
2018-Mar-13 14:27N 44°44' E 037°47'0 0.0
2018-Mar-13 14:00N 44°44' E 037°47'0 0.0
2018-Mar-13 13:30N 44°44' E 037°47'0 0.0
2018-Mar-13 13:00N 44°44' E 037°47'0 0.0
2018-Mar-13 12:30N 44°44' E 037°47'0 0.0
2018-Mar-13 12:00N 44°44' E 037°47'0 0.0
2018-Mar-13 11:30N 44°44' E 037°47'0 0.5
2018-Mar-13 11:00N 44°44' E 037°48'0 0.0
2018-Mar-13 10:30N 44°44' E 037°48'0 0.0
2018-Mar-13 10:00N 44°44' E 037°48'0 0.0
2018-Mar-13 09:30N 44°44' E 037°48'0 0.0
2018-Mar-13 09:00N 44°44' E 037°48'0 0.0
2018-Mar-13 08:30N 44°44' E 037°48'0 0.0
2018-Mar-13 08:00N 44°44' E 037°48'0 0.0
2018-Mar-13 07:30N 44°44' E 037°48'0 0.0
2018-Mar-13 07:00N 44°44' E 037°48'0 0.0
2018-Mar-13 06:30N 44°44' E 037°48'0 0.0
2018-Mar-13 06:00N 44°44' E 037°48'0 0.0
2018-Mar-13 05:30N 44°44' E 037°48'0 0.0
2018-Mar-13 05:00N 44°44' E 037°48'0 0.0
2018-Mar-13 04:30N 44°44' E 037°48'0 0.0
2018-Mar-13 04:00N 44°44' E 037°48'0 0.0
2018-Mar-13 03:30N 44°44' E 037°48'0 0.0
2018-Mar-13 03:00N 44°44' E 037°48'0 0.0
2018-Mar-13 02:30N 44°44' E 037°48'0 0.0
2018-Mar-13 02:00N 44°44' E 037°48'0 0.0
2018-Mar-13 01:30N 44°44' E 037°48'0 0.0
2018-Mar-13 01:00N 44°44' E 037°48'0 0.0
2018-Mar-13 00:30N 44°44' E 037°48'0 0.0
2018-Mar-12 23:57N 44°44' E 037°48'0 0.0
2018-Mar-12 23:30N 44°44' E 037°48'0 0.0
2018-Mar-12 23:00N 44°44' E 037°48'0 0.0
2018-Mar-12 22:30N 44°44' E 037°48'0 0.0
2018-Mar-12 22:00N 44°44' E 037°48'0 0.0
2018-Mar-12 21:30N 44°44' E 037°48'0 0.0
2018-Mar-12 20:58N 44°44' E 037°48'0 0.0
2018-Mar-12 20:28N 44°44' E 037°48'0 0.0
2018-Mar-12 19:58N 44°44' E 037°48'0 0.0
2018-Mar-12 19:28N 44°44' E 037°48'0 0.0
2018-Mar-12 18:58N 44°44' E 037°48'0 0.0
2018-Mar-12 18:28N 44°44' E 037°48'0 0.0
2018-Mar-12 17:59N 44°44' E 037°48'1 2.1
2018-Mar-12 17:30N 44°43' E 037°48'2 3.6
2018-Mar-12 16:58N 44°41' E 037°49'0 0.0
2018-Mar-12 16:28N 44°41' E 037°49'0 0.0
2018-Mar-12 15:58N 44°41' E 037°49'0 0.0
2018-Mar-12 15:28N 44°41' E 037°49'0 0.0
2018-Mar-12 14:58N 44°41' E 037°49'0 0.0
2018-Mar-12 14:28N 44°41' E 037°49'0 0.0
2018-Mar-12 13:58N 44°41' E 037°49'0 0.0
2018-Mar-12 13:28N 44°41' E 037°49'0 0.0
2018-Mar-12 12:58N 44°41' E 037°49'0 0.0
2018-Mar-12 12:28N 44°41' E 037°49'0 0.0
2018-Mar-12 11:58N 44°41' E 037°49'0 0.0
2018-Mar-12 11:28N 44°41' E 037°49'0 0.0
2018-Mar-12 10:58N 44°41' E 037°49'0 0.0
2018-Mar-12 10:28N 44°41' E 037°49'0 0.0
2018-Mar-12 09:58N 44°41' E 037°49'0 0.0
2018-Mar-12 09:28N 44°41' E 037°49'0 0.9
2018-Mar-12 09:00N 44°41' E 037°49'3 6.1
2018-Mar-12 08:30N 44°38' E 037°52'3 6.7
2018-Mar-12 08:00N 44°36' E 037°55'3 6.8
2018-Mar-12 07:30N 44°34' E 037°58'4 7.0
2018-Mar-12 07:00N 44°31' E 038°01'4 7.0
2018-Mar-12 06:30N 44°28' E 038°05'814.0
2018-Mar-12 05:57N 44°23' E 038°13'0 0.0
2018-Mar-12 05:30N 44°23' E 038°13'2 4.4
2018-Mar-12 04:58N 44°22' E 038°16'3 6.6
2018-Mar-12 04:27N 44°20' E 038°20'3 6.6
2018-Mar-12 04:00N 44°19' E 038°23'12 6.5
2018-Mar-12 02:15N 44°14' E 038°38'2 6.4
2018-Mar-12 01:56N 44°13' E 038°40'3 6.4
2018-Mar-12 01:30N 44°11' E 038°43'3 6.3
2018-Mar-12 01:00N 44°10' E 038°47'3 6.2
2018-Mar-12 00:30N 44°08' E 038°51'3 6.4
2018-Mar-12 00:00N 44°07' E 038°55'3 6.8
2018-Mar-11 23:30N 44°05' E 038°59'2 4.3
2018-Mar-11 23:00N 44°04' E 039°02'0 0.0
2018-Mar-11 22:30N 44°04' E 039°02'0 0.0
2018-Mar-11 22:00N 44°04' E 039°02'0 0.0
2018-Mar-11 21:30N 44°04' E 039°02'0 0.0
2018-Mar-11 21:00N 44°04' E 039°02'0 0.0
2018-Mar-11 20:30N 44°04' E 039°02'0 0.2
2018-Mar-11 20:00N 44°04' E 039°02'2 3.8
2018-Mar-11 19:30N 44°06' E 039°04'0 0.1
2018-Mar-11 18:58N 44°06' E 039°04'0 0.0
2018-Mar-11 18:28N 44°06' E 039°04'0 0.0
2018-Mar-11 17:58N 44°06' E 039°04'0 0.0
2018-Mar-11 17:28N 44°06' E 039°04'0 0.0
2018-Mar-11 16:58N 44°06' E 039°04'0 0.0
2018-Mar-11 16:28N 44°06' E 039°04'0 0.0
2018-Mar-11 15:58N 44°06' E 039°04'0 0.0
2018-Mar-11 15:28N 44°06' E 039°04'0 0.0
2018-Mar-11 14:58N 44°06' E 039°04'0 0.0
2018-Mar-11 14:28N 44°06' E 039°04'0 0.0
2018-Mar-11 13:58N 44°06' E 039°04'0 0.0
2018-Mar-11 13:28N 44°06' E 039°04'0 0.0
2018-Mar-11 12:58N 44°06' E 039°04'0 0.0
2018-Mar-11 12:28N 44°06' E 039°04'0 0.0
2018-Mar-11 11:58N 44°06' E 039°04'0 0.0
2018-Mar-11 11:28N 44°06' E 039°04'0 0.0
2018-Mar-11 10:58N 44°06' E 039°04'0 0.0
2018-Mar-11 10:28N 44°06' E 039°04'0 0.0
2018-Mar-11 09:58N 44°06' E 039°04'0 0.0
2018-Mar-11 09:28N 44°06' E 039°04'0 0.0
2018-Mar-11 08:58N 44°06' E 039°04'0 0.0
2018-Mar-11 08:28N 44°06' E 039°04'0 0.0
2018-Mar-11 07:58N 44°06' E 039°04'0 0.3
2018-Mar-11 07:30N 44°06' E 039°04'1 1.7
2018-Mar-11 06:58N 44°05' E 039°03'0 0.1
2018-Mar-11 06:28N 44°05' E 039°03'0 0.0
2018-Mar-11 05:58N 44°05' E 039°03'0 0.0
2018-Mar-11 05:28N 44°05' E 039°03'0 0.0
2018-Mar-11 04:58N 44°05' E 039°03'0 0.0
2018-Mar-11 04:28N 44°05' E 039°03'0 0.0
2018-Mar-11 03:58N 44°05' E 039°03'  

Dump ship's entire track history